Maersk Shenzhen — D5LD3 — position and weather

sailwx.info

Track history (hours):
 
Tides and Currents Weather Stations Pressure Air Temp Water Temp Dewpoint Dewpoint Depression Visibility Wind Speed Wind Dir Waves Ship Positions

Maersk Shenzhen

Last reported at 2018-Feb-08 20:30 UTC. Time now 2018-Feb-22 04:29 UTC.
Position N 01°16' E 103°46'.
Warning: this ship's position is 13 days out of date.

Length 324 m; draft 12.4 m.

Type: Cargo ship. MMSI: 636017474.

Date/timePositionNaut miles runAvg speedWind from/ knotsBaromVisibWave heightAir tempDewpointWater temp
2018-Feb-08 20:30N 01°16' E 103°46'0 0.0
2018-Feb-08 18:30N 01°16' E 103°46'0 0.0
2018-Feb-08 17:30N 01°16' E 103°46'0 0.0
2018-Feb-08 17:00N 01°16' E 103°46'0 0.0
2018-Feb-08 15:00N 01°16' E 103°46'0 0.0
2018-Feb-08 14:30N 01°16' E 103°46'0 0.0
2018-Feb-08 14:00N 01°16' E 103°46'0 0.0
2018-Feb-08 13:30N 01°16' E 103°46'0 0.0
2018-Feb-08 13:00N 01°16' E 103°46'0 0.0
2018-Feb-08 12:00N 01°16' E 103°46'0 0.0
2018-Feb-08 11:30N 01°16' E 103°46'0 0.0
2018-Feb-08 11:00N 01°16' E 103°46'0 0.0
2018-Feb-08 09:30N 01°16' E 103°46'0 0.0
2018-Feb-08 08:30N 01°16' E 103°46'0 0.0
2018-Feb-08 07:00N 01°16' E 103°46'5 1.7
2018-Feb-08 04:00N 01°12' E 103°49'4 7.8
2018-Feb-08 03:30N 01°13' E 103°53'2 4.8
2018-Feb-08 03:00N 01°14' E 103°55'510.0
2018-Feb-08 02:30N 01°16' E 104°00'1413.4
2018-Feb-08 01:27N 01°17' E 104°14'713.4
2018-Feb-08 00:55N 01°20' E 104°21'  
2018-Feb-01 04:46N 22°30' E 119°49'518.3
2018-Feb-01 04:30N 22°31' E 119°54'918.3
2018-Feb-01 04:00N 22°32' E 120°04'1413.9
2018-Feb-01 03:00N 22°33' E 120°19'1 1.6
2018-Feb-01 02:30N 22°33' E 120°20'0 0.0
2018-Feb-01 02:00N 22°33' E 120°20'0 0.0
2018-Feb-01 01:30N 22°33' E 120°20'0 0.0
2018-Feb-01 01:00N 22°33' E 120°20'0 0.0
2018-Feb-01 00:27N 22°33' E 120°20'0 0.0
2018-Feb-01 00:00N 22°33' E 120°20'0 0.1
2018-Jan-31 23:00N 22°33' E 120°20'0 0.0
2018-Jan-31 22:30N 22°33' E 120°20'0 0.0
2018-Jan-31 21:00N 22°33' E 120°20'0 0.1
2018-Jan-31 20:30N 22°33' E 120°20'0 0.1
2018-Jan-31 20:00N 22°33' E 120°20'0 0.1
2018-Jan-31 19:27N 22°33' E 120°20'0 0.0
2018-Jan-31 19:00N 22°33' E 120°20'0 0.0
2018-Jan-31 18:27N 22°33' E 120°20'0 0.1
2018-Jan-31 18:00N 22°33' E 120°20'0 0.1
2018-Jan-31 17:30N 22°33' E 120°20'0 0.0
2018-Jan-31 17:00N 22°33' E 120°20'0 0.1
2018-Jan-31 16:30N 22°33' E 120°20'0 0.1
2018-Jan-31 16:00N 22°33' E 120°20'0 0.0
2018-Jan-31 15:30N 22°33' E 120°20'0 0.1
2018-Jan-31 15:00N 22°33' E 120°20'0 0.1
2018-Jan-31 14:30N 22°33' E 120°20'0 0.0
2018-Jan-31 13:00N 22°33' E 120°20'0 0.1
2018-Jan-31 12:30N 22°33' E 120°20'0 0.0
2018-Jan-31 12:00N 22°33' E 120°20'0 0.0
2018-Jan-31 11:30N 22°33' E 120°20'0 0.0
2018-Jan-31 10:48N 22°33' E 120°20'0 0.2
2018-Jan-31 10:30N 22°33' E 120°20'0 0.0
2018-Jan-31 10:00N 22°33' E 120°20'0 0.0
2018-Jan-31 09:30N 22°33' E 120°20'0 0.0
2018-Jan-31 08:57N 22°33' E 120°20'0 0.0
2018-Jan-31 08:27N 22°33' E 120°20'0 0.1
2018-Jan-31 08:00N 22°33' E 120°20'0 0.1
2018-Jan-31 07:30N 22°33' E 120°20'0 0.1
2018-Jan-31 07:00N 22°33' E 120°20'0 0.0
2018-Jan-31 06:30N 22°33' E 120°20'0 0.0
2018-Jan-31 06:00N 22°33' E 120°20'0 0.1
2018-Jan-31 05:30N 22°33' E 120°20'0 0.0
2018-Jan-31 05:00N 22°33' E 120°20'0 0.1
2018-Jan-31 04:30N 22°33' E 120°20'0 0.9
2018-Jan-31 04:01N 22°33' E 120°19'3 6.9
2018-Jan-31 03:30N 22°32' E 120°16'1 1.6
2018-Jan-31 03:00N 22°32' E 120°15'5 9.3
2018-Jan-31 02:29N 22°33' E 120°10'1 1.2
2018-Jan-31 01:59N 22°33' E 120°09'0 0.8
2018-Jan-31 01:29N 22°33' E 120°09'2 3.4
2018-Jan-31 01:00N 22°34' E 120°07'6 6.5
2018-Jan-31 00:00N 22°37' E 120°01'4 7.3
2018-Jan-30 23:30N 22°39' E 119°58'4 7.5
2018-Jan-30 23:00N 22°41' E 119°54'4 7.3
2018-Jan-30 22:29N 22°43' E 119°51'7 7.0
2018-Jan-30 21:30N 22°46' E 119°44'3 6.7
2018-Jan-30 21:00N 22°48' E 119°41'4 7.1
2018-Jan-30 20:27N 22°50' E 119°38'3 6.7
2018-Jan-30 19:59N 22°52' E 119°35'4 7.6
2018-Jan-30 19:30N 22°54' E 119°31'4 8.0
2018-Jan-30 19:00N 22°55' E 119°28'6 8.0
2018-Jan-30 18:19N 22°58' E 119°22'72 7.4
2018-Jan-30 08:33N 23°52' E 118°31'3 7.6
2018-Jan-30 08:08N 23°55' E 118°29'1 7.4
2018-Jan-30 08:00N 23°56' E 118°29'4 7.4
2018-Jan-30 07:30N 23°59' E 118°27'4 7.6
2018-Jan-30 07:00N 24°02' E 118°24'4 7.4
2018-Jan-30 06:30N 24°05' E 118°21'4 8.7
2018-Jan-30 06:00N 24°09' E 118°20'4 8.4
2018-Jan-30 05:30N 24°13' E 118°17'510.3
2018-Jan-30 05:00N 24°17' E 118°14'611.4
2018-Jan-30 04:30N 24°21' E 118°10'510.9
2018-Jan-30 04:00N 24°25' E 118°05'5 9.6
2018-Jan-30 03:30N 24°27' E 118°00'0 0.1
2018-Jan-30 03:00N 24°27' E 118°00'0 0.0
2018-Jan-30 02:27N 24°27' E 118°00'0 0.0
2018-Jan-30 01:57N 24°27' E 118°00'0 0.0
2018-Jan-30 01:30N 24°27' E 118°00'0 0.0
2018-Jan-30 01:00N 24°27' E 118°00'0 0.0
2018-Jan-30 00:30N 24°27' E 118°00'0 0.0
2018-Jan-30 00:00N 24°27' E 118°00'0 0.0
2018-Jan-29 23:30N 24°27' E 118°00'0 0.0
2018-Jan-29 23:00N 24°27' E 118°00'0 0.0
2018-Jan-29 22:30N 24°27' E 118°00'0 0.0
2018-Jan-29 22:00N 24°27' E 118°00'0 0.0
2018-Jan-29 21:30N 24°27' E 118°00'0 0.0
2018-Jan-29 21:00N 24°27' E 118°00'  
Track history (hours):
 
Tides and Currents Weather Stations Pressure Air Temp Water Temp Dewpoint Dewpoint Depression Visibility Wind Speed Wind Dir Waves Ship Positions

Maersk Shenzhen

Last reported at 2018-Feb-08 20:30 UTC. Time now 2018-Feb-22 04:29 UTC.
Position N 01°16' E 103°46'.
Warning: this ship's position is 13 days out of date.

Length 324 m; draft 12.4 m.

Type: Cargo ship. MMSI: 636017474.

Date/timePositionNaut miles runAvg speedWind from/ knotsBaromVisibWave heightAir tempDewpointWater temp
2018-Feb-08 20:30N 01°16' E 103°46'0 0.0
2018-Feb-08 18:30N 01°16' E 103°46'0 0.0
2018-Feb-08 17:30N 01°16' E 103°46'0 0.0
2018-Feb-08 17:00N 01°16' E 103°46'0 0.0
2018-Feb-08 15:00N 01°16' E 103°46'0 0.0
2018-Feb-08 14:30N 01°16' E 103°46'0 0.0
2018-Feb-08 14:00N 01°16' E 103°46'0 0.0
2018-Feb-08 13:30N 01°16' E 103°46'0 0.0
2018-Feb-08 13:00N 01°16' E 103°46'0 0.0
2018-Feb-08 12:00N 01°16' E 103°46'0 0.0
2018-Feb-08 11:30N 01°16' E 103°46'0 0.0
2018-Feb-08 11:00N 01°16' E 103°46'0 0.0
2018-Feb-08 09:30N 01°16' E 103°46'0 0.0
2018-Feb-08 08:30N 01°16' E 103°46'0 0.0
2018-Feb-08 07:00N 01°16' E 103°46'5 1.7
2018-Feb-08 04:00N 01°12' E 103°49'4 7.8
2018-Feb-08 03:30N 01°13' E 103°53'2 4.8
2018-Feb-08 03:00N 01°14' E 103°55'510.0
2018-Feb-08 02:30N 01°16' E 104°00'1413.4
2018-Feb-08 01:27N 01°17' E 104°14'713.4
2018-Feb-08 00:55N 01°20' E 104°21'  
2018-Feb-01 04:46N 22°30' E 119°49'518.3
2018-Feb-01 04:30N 22°31' E 119°54'918.3
2018-Feb-01 04:00N 22°32' E 120°04'1413.9
2018-Feb-01 03:00N 22°33' E 120°19'1 1.6
2018-Feb-01 02:30N 22°33' E 120°20'0 0.0
2018-Feb-01 02:00N 22°33' E 120°20'0 0.0
2018-Feb-01 01:30N 22°33' E 120°20'0 0.0
2018-Feb-01 01:00N 22°33' E 120°20'0 0.0
2018-Feb-01 00:27N 22°33' E 120°20'0 0.0
2018-Feb-01 00:00N 22°33' E 120°20'0 0.1
2018-Jan-31 23:00N 22°33' E 120°20'0 0.0
2018-Jan-31 22:30N 22°33' E 120°20'0 0.0
2018-Jan-31 21:00N 22°33' E 120°20'0 0.1
2018-Jan-31 20:30N 22°33' E 120°20'0 0.1
2018-Jan-31 20:00N 22°33' E 120°20'0 0.1
2018-Jan-31 19:27N 22°33' E 120°20'0 0.0
2018-Jan-31 19:00N 22°33' E 120°20'0 0.0
2018-Jan-31 18:27N 22°33' E 120°20'0 0.1
2018-Jan-31 18:00N 22°33' E 120°20'0 0.1
2018-Jan-31 17:30N 22°33' E 120°20'0 0.0
2018-Jan-31 17:00N 22°33' E 120°20'0 0.1
2018-Jan-31 16:30N 22°33' E 120°20'0 0.1
2018-Jan-31 16:00N 22°33' E 120°20'0 0.0
2018-Jan-31 15:30N 22°33' E 120°20'0 0.1
2018-Jan-31 15:00N 22°33' E 120°20'0 0.1
2018-Jan-31 14:30N 22°33' E 120°20'0 0.0
2018-Jan-31 13:00N 22°33' E 120°20'0 0.1
2018-Jan-31 12:30N 22°33' E 120°20'0 0.0
2018-Jan-31 12:00N 22°33' E 120°20'0 0.0
2018-Jan-31 11:30N 22°33' E 120°20'0 0.0
2018-Jan-31 10:48N 22°33' E 120°20'0 0.2
2018-Jan-31 10:30N 22°33' E 120°20'0 0.0
2018-Jan-31 10:00N 22°33' E 120°20'0 0.0
2018-Jan-31 09:30N 22°33' E 120°20'0 0.0
2018-Jan-31 08:57N 22°33' E 120°20'0 0.0
2018-Jan-31 08:27N 22°33' E 120°20'0 0.1
2018-Jan-31 08:00N 22°33' E 120°20'0 0.1
2018-Jan-31 07:30N 22°33' E 120°20'0 0.1
2018-Jan-31 07:00N 22°33' E 120°20'0 0.0
2018-Jan-31 06:30N 22°33' E 120°20'0 0.0
2018-Jan-31 06:00N 22°33' E 120°20'0 0.1
2018-Jan-31 05:30N 22°33' E 120°20'0 0.0
2018-Jan-31 05:00N 22°33' E 120°20'0 0.1
2018-Jan-31 04:30N 22°33' E 120°20'0 0.9
2018-Jan-31 04:01N 22°33' E 120°19'3 6.9
2018-Jan-31 03:30N 22°32' E 120°16'1 1.6
2018-Jan-31 03:00N 22°32' E 120°15'5 9.3
2018-Jan-31 02:29N 22°33' E 120°10'1 1.2
2018-Jan-31 01:59N 22°33' E 120°09'0 0.8
2018-Jan-31 01:29N 22°33' E 120°09'2 3.4
2018-Jan-31 01:00N 22°34' E 120°07'6 6.5
2018-Jan-31 00:00N 22°37' E 120°01'4 7.3
2018-Jan-30 23:30N 22°39' E 119°58'4 7.5
2018-Jan-30 23:00N 22°41' E 119°54'4 7.3
2018-Jan-30 22:29N 22°43' E 119°51'7 7.0
2018-Jan-30 21:30N 22°46' E 119°44'3 6.7
2018-Jan-30 21:00N 22°48' E 119°41'4 7.1
2018-Jan-30 20:27N 22°50' E 119°38'3 6.7
2018-Jan-30 19:59N 22°52' E 119°35'4 7.6
2018-Jan-30 19:30N 22°54' E 119°31'4 8.0
2018-Jan-30 19:00N 22°55' E 119°28'6 8.0
2018-Jan-30 18:19N 22°58' E 119°22'72 7.4
2018-Jan-30 08:33N 23°52' E 118°31'3 7.6
2018-Jan-30 08:08N 23°55' E 118°29'1 7.4
2018-Jan-30 08:00N 23°56' E 118°29'4 7.4
2018-Jan-30 07:30N 23°59' E 118°27'4 7.6
2018-Jan-30 07:00N 24°02' E 118°24'4 7.4
2018-Jan-30 06:30N 24°05' E 118°21'4 8.7
2018-Jan-30 06:00N 24°09' E 118°20'4 8.4
2018-Jan-30 05:30N 24°13' E 118°17'510.3
2018-Jan-30 05:00N 24°17' E 118°14'611.4
2018-Jan-30 04:30N 24°21' E 118°10'510.9
2018-Jan-30 04:00N 24°25' E 118°05'5 9.6
2018-Jan-30 03:30N 24°27' E 118°00'0 0.1
2018-Jan-30 03:00N 24°27' E 118°00'0 0.0
2018-Jan-30 02:27N 24°27' E 118°00'0 0.0
2018-Jan-30 01:57N 24°27' E 118°00'0 0.0
2018-Jan-30 01:30N 24°27' E 118°00'0 0.0
2018-Jan-30 01:00N 24°27' E 118°00'0 0.0
2018-Jan-30 00:30N 24°27' E 118°00'0 0.0
2018-Jan-30 00:00N 24°27' E 118°00'0 0.0
2018-Jan-29 23:30N 24°27' E 118°00'0 0.0
2018-Jan-29 23:00N 24°27' E 118°00'0 0.0
2018-Jan-29 22:30N 24°27' E 118°00'0 0.0
2018-Jan-29 22:00N 24°27' E 118°00'0 0.0
2018-Jan-29 21:30N 24°27' E 118°00'0 0.0
2018-Jan-29 21:00N 24°27' E 118°00'  

Dump ship's entire track history